Time;durP1;ratioP1;P1;durP2;ratioP2;P2;SDS_P1;SDS_P2;PMS_P1;PMS_P2;Temp;Humidity;BMP_temperature;BMP_pressure;BME280_temperature;BME280_humidity;BME280_pressure;Samples;Min_cycle;Max_cycle;Signal;HPM_P1;HPM_P2
2021/09/11 00:01:37;;;;;;;4.00;1.60;;;16.90;99.90;;;16.48;94.85;101543.78;4167522;28;20090;-75
2021/09/11 00:03:38;;;;;;;2.60;1.80;;;16.90;99.90;;;16.36;95.45;101526.53;4183869;28;20025;-76
2021/09/11 00:05:39;;;;;;;1.75;1.23;;;16.80;99.90;;;16.41;95.96;101550.78;4183280;28;20056;-75
2021/09/11 00:07:40;;;;;;;2.28;1.98;;;16.80;99.90;;;16.28;96.22;101532.69;4167260;28;20481;-75
2021/09/11 00:09:41;;;;;;;4.25;1.60;;;16.80;99.90;;;16.26;96.85;101539.19;4176809;28;20476;-75
2021/09/11 00:11:42;;;;;;;3.58;2.03;;;16.80;99.90;;;16.24;96.79;101533.22;4184981;28;20033;-75
2021/09/11 00:13:43;;;;;;;3.90;1.50;;;16.70;99.90;;;16.18;97.07;101531.25;4167175;28;20033;-76
2021/09/11 00:15:44;;;;;;;2.78;1.98;;;16.70;99.90;;;16.14;97.28;101533.44;4183815;28;20025;-76
2021/09/11 00:17:47;;;;;;;6.53;2.05;;;16.60;99.90;;;16.10;98.00;101524.13;4183835;28;20028;-75
2021/09/11 00:19:49;;;;;;;2.38;1.58;;;16.60;99.90;;;16.14;97.99;101537.94;4183561;28;20021;-75
2021/09/11 00:21:50;;;;;;;3.53;1.58;;;16.60;99.90;;;15.93;98.36;101526.03;4167268;28;20030;-76
2021/09/11 00:23:51;;;;;;;2.83;1.60;;;16.50;99.90;;;15.95;98.45;101544.47;4184949;28;20025;-75
2021/09/11 00:25:52;;;;;;;2.35;1.80;;;16.50;99.90;;;15.94;99.30;101550.81;4167240;28;20059;-76
2021/09/11 00:27:53;;;;;;;3.92;2.58;;;16.40;99.90;;;15.99;98.83;101540.47;4183846;28;20029;-75
2021/09/11 00:29:54;;;;;;;3.95;1.73;;;16.40;99.90;;;15.95;98.41;101539.16;4166941;28;20080;-75
2021/09/11 00:31:54;;;;;;;2.58;1.77;;;16.40;99.90;;;15.85;99.46;101528.72;4183430;28;20025;-75
2021/09/11 00:33:55;;;;;;;3.60;1.80;;;16.40;99.90;;;15.79;99.81;101531.25;4185002;28;20107;-75
2021/09/11 00:35:56;;;;;;;2.85;1.75;;;16.40;99.90;;;16.13;100.00;101569.03;4184349;28;20056;-75
2021/09/11 00:37:57;;;;;;;4.68;1.98;;;16.30;99.90;;;15.94;99.75;101529.53;4183481;28;20040;-75
2021/09/11 00:39:58;;;;;;;4.15;1.80;;;16.40;99.90;;;15.94;100.00;101538.34;4183394;28;20027;-75
2021/09/11 00:41:59;;;;;;;2.22;1.88;;;16.40;99.90;;;15.93;100.00;101538.50;4183768;28;20060;-75
2021/09/11 00:44:00;;;;;;;4.30;1.55;;;16.40;99.90;;;16.07;99.98;101551.09;4166843;28;20504;-75
2021/09/11 00:46:01;;;;;;;2.97;2.15;;;16.40;99.90;;;16.08;100.00;101552.75;4183176;28;20052;-75
2021/09/11 00:48:03;;;;;;;5.68;1.83;;;16.40;99.90;;;16.04;99.74;101546.94;4183299;28;20030;-76
2021/09/11 00:50:06;;;;;;;2.00;1.60;;;16.40;99.90;;;16.12;98.89;101562.06;4166748;28;20486;-76
2021/09/11 00:52:07;;;;;;;2.10;1.77;;;16.40;99.90;;;16.12;98.90;101558.56;4183476;28;20143;-75
2021/09/11 00:54:10;;;;;;;4.03;2.42;;;16.30;99.90;;;16.04;98.52;101559.41;4184555;28;20060;-76
2021/09/11 00:56:13;;;;;;;4.25;1.98;;;16.30;99.90;;;15.93;98.99;101557.13;4184279;28;20021;-76
2021/09/11 00:58:14;;;;;;;3.67;2.63;;;16.30;99.90;;;15.93;98.39;101557.97;4183416;28;20033;-76
2021/09/11 01:00:16;;;;;;;3.35;2.28;;;16.20;99.90;;;15.97;98.39;101563.78;4184430;28;20131;-76
2021/09/11 01:02:17;;;;;;;2.63;1.65;;;16.20;99.90;;;15.95;98.20;101573.75;4183227;28;20075;-75
2021/09/11 01:04:18;;;;;;;3.22;1.85;;;16.20;99.90;;;15.83;98.16;101551.19;4216397;28;20020;-76
2021/09/11 01:06:20;;;;;;;3.38;2.30;;;16.20;99.90;;;15.72;98.83;101552.38;4184317;28;20024;-75
2021/09/11 01:08:22;;;;;;;5.75;2.20;;;16.10;99.90;;;15.64;98.67;101543.56;4166606;28;20029;-76
2021/09/11 01:10:23;;;;;;;5.03;2.20;;;16.00;99.90;;;15.55;99.10;101541.94;4203089;28;20075;-76
2021/09/11 01:12:24;;;;;;;2.30;1.95;;;16.00;99.90;;;15.42;99.67;101542.41;4182824;28;20466;-76
2021/09/11 01:14:25;;;;;;;2.35;1.75;;;15.90;99.90;;;15.39;99.73;101546.22;4183442;28;20476;-76
2021/09/11 01:16:26;;;;;;;2.88;2.10;;;15.80;99.90;;;15.23;100.00;101526.81;4190445;28;20032;-75
2021/09/11 01:18:28;;;;;;;3.13;2.40;;;15.70;99.90;;;15.17;100.00;101514.19;4198448;28;20115;-76
2021/09/11 01:20:29;;;;;;;2.78;1.70;;;15.70;99.90;;;15.22;100.00;101533.97;4186239;28;20021;-75
2021/09/11 01:22:30;;;;;;;3.50;2.30;;;15.70;99.90;;;15.38;100.00;101546.41;4186412;28;20431;-75
2021/09/11 01:24:31;;;;;;;2.83;1.85;;;15.70;99.90;;;15.03;100.00;101509.53;4210347;28;20042;-75
2021/09/11 01:26:32;;;;;;;3.15;2.03;;;15.60;99.90;;;15.00;100.00;101509.84;4182277;28;20029;-76
2021/09/11 01:28:33;;;;;;;5.00;2.22;;;15.60;99.90;;;15.22;100.00;101546.41;4186428;28;20123;-76
2021/09/11 01:30:34;;;;;;;5.20;2.75;;;15.60;99.90;;;14.97;100.00;101519.00;4169872;28;20073;-76
2021/09/11 01:32:35;;;;;;;4.13;2.17;;;15.50;99.90;;;15.23;100.00;101545.44;4187387;28;20029;-76
2021/09/11 01:34:36;;;;;;;3.13;2.17;;;15.50;99.90;;;15.08;100.00;101547.91;4169260;28;20037;-76
2021/09/11 01:36:37;;;;;;;3.67;2.25;;;15.40;99.90;;;14.79;100.00;101518.31;4169637;28;20519;-75
2021/09/11 01:38:38;;;;;;;2.83;2.20;;;15.40;99.90;;;14.64;100.00;101507.50;4186449;28;20025;-76
2021/09/11 01:40:39;;;;;;;4.50;2.35;;;15.30;99.90;;;14.67;100.00;101525.78;4186157;28;20029;-76
2021/09/11 01:42:41;;;;;;;3.85;2.17;;;15.20;99.90;;;14.71;100.00;101531.59;4169489;28;20033;-76
2021/09/11 01:44:55;;;;;;;2.45;2.20;;;15.10;99.90;;;14.53;100.00;101502.53;4169134;28;20049;-76
2021/09/11 01:46:56;;;;;;;3.50;2.28;;;15.10;99.90;;;14.56;100.00;101517.28;4211967;28;20123;-75
2021/09/11 01:48:57;;;;;;;2.22;1.92;;;15.00;99.90;;;14.65;100.00;101548.19;4180327;28;20028;-75
2021/09/11 01:50:58;;;;;;;3.15;2.55;;;15.00;99.90;;;14.44;100.00;101529.19;4185602;28;20107;-76
2021/09/11 01:52:59;;;;;;;3.63;2.53;;;14.90;99.90;;;14.43;100.00;101532.84;4169646;28;20045;-76
2021/09/11 01:55:00;;;;;;;5.30;2.13;;;14.90;99.90;;;14.35;100.00;101510.59;4169482;28;20393;-76
2021/09/11 01:57:01;;;;;;;3.17;2.25;;;14.80;99.90;;;14.46;100.00;101519.25;4187117;28;20018;-76
2021/09/11 01:59:02;;;;;;;2.85;2.05;;;14.80;99.90;;;14.51;100.00;101531.06;4187013;28;20476;-76
2021/09/11 02:01:03;;;;;;;3.90;2.25;;;14.80;99.90;;;14.40;100.00;101534.00;4185899;28;20051;-76
2021/09/11 02:03:04;;;;;;;2.45;2.10;;;14.80;99.90;;;14.23;100.00;101538.41;4185737;28;20028;-76
2021/09/11 02:05:07;;;;;;;3.00;1.95;;;14.70;99.90;;;14.19;100.00;101536.22;4169040;28;20538;-75
2021/09/11 02:07:08;;;;;;;2.97;2.00;;;14.60;99.90;;;14.19;100.00;101537.03;4185460;28;20039;-76
2021/09/11 02:09:11;;;;;;;2.95;2.30;;;14.60;99.90;;;14.20;100.00;101533.41;4184291;28;20155;-75
2021/09/11 02:11:12;;;;;;;2.60;2.15;;;14.60;99.90;;;14.29;100.00;101548.38;4191607;28;20075;-76
2021/09/11 02:13:13;;;;;;;5.57;2.45;;;14.50;99.90;;;14.06;100.00;101531.38;4185587;28;20025;-76
2021/09/11 02:15:14;;;;;;;3.47;2.33;;;14.50;99.90;;;14.03;100.00;101542.31;4186671;28;20021;-75
2021/09/11 02:17:15;;;;;;;4.63;2.60;;;14.40;99.90;;;13.97;100.00;101534.13;4168803;28;20076;-75
2021/09/11 02:19:16;;;;;;;3.75;2.38;;;14.40;99.90;;;14.04;100.00;101543.94;4186786;28;20434;-76
2021/09/11 02:21:17;;;;;;;5.75;3.03;;;14.30;99.90;;;13.84;100.00;101527.44;4185165;28;20029;-76
2021/09/11 02:23:18;;;;;;;2.70;2.35;;;14.30;99.90;;;13.77;100.00;101530.88;4186780;28;20102;-76
2021/09/11 02:25:19;;;;;;;4.38;2.50;;;14.30;99.90;;;13.86;100.00;101548.50;4186562;28;20029;-75
2021/09/11 02:27:20;;;;;;;2.83;2.13;;;14.20;99.90;;;13.90;100.00;101563.13;4186749;28;20029;-75
2021/09/11 02:29:21;;;;;;;3.47;2.33;;;14.20;99.90;;;13.67;100.00;101531.00;4185151;28;20503;-76
2021/09/11 02:31:22;;;;;;;3.00;2.45;;;14.20;99.90;;;13.73;100.00;101540.16;4186579;28;20031;-76
2021/09/11 02:33:23;;;;;;;4.03;2.42;;;14.10;99.90;;;13.85;100.00;101546.84;4185157;28;20107;-75
2021/09/11 02:35:24;;;;;;;4.70;2.72;;;14.10;99.90;;;13.84;100.00;101547.81;4184907;28;20060;-76
2021/09/11 02:37:25;;;;;;;6.72;2.30;;;14.20;99.90;;;13.91;100.00;101537.44;4185250;28;20064;-75
2021/09/11 02:39:26;;;;;;;5.70;2.90;;;14.10;99.90;;;13.98;100.00;101544.56;4201823;28;20220;-76
2021/09/11 02:41:27;;;;;;;5.65;2.60;;;14.20;99.90;;;14.07;100.00;101543.63;4185114;28;20063;-75
2021/09/11 02:43:28;;;;;;;4.45;2.60;;;14.20;99.90;;;13.99;100.00;101551.56;4185461;28;20063;-76
2021/09/11 02:45:29;;;;;;;4.28;2.38;;;14.20;99.90;;;13.90;100.00;101544.53;4184805;28;20045;-76
2021/09/11 02:47:30;;;;;;;4.63;2.75;;;14.20;99.90;;;13.74;100.00;101520.56;4168541;28;20500;-76
2021/09/11 02:49:31;;;;;;;5.57;2.70;;;14.20;99.90;;;13.82;100.00;101518.00;4186975;28;20080;-76
2021/09/11 02:51:32;;;;;;;3.47;2.10;;;14.20;99.90;;;13.71;100.00;101520.91;4184993;28;20040;-76
2021/09/11 02:53:33;;;;;;;5.68;2.40;;;14.20;99.90;;;13.73;100.00;101550.75;4176410;28;20041;-76
2021/09/11 02:55:34;;;;;;;4.05;2.28;;;14.20;99.90;;;13.74;100.00;101568.31;4184858;28;20515;-76
2021/09/11 02:57:35;;;;;;;5.97;2.40;;;14.10;99.90;;;13.63;100.00;101550.84;4184800;28;20040;-76
2021/09/11 02:59:36;;;;;;;3.70;2.30;;;14.10;99.90;;;13.56;100.00;101530.44;4185033;28;20155;-76
2021/09/11 03:01:37;;;;;;;3.17;2.75;;;14.10;99.90;;;13.52;100.00;101526.44;4184806;28;20038;-76
2021/09/11 03:03:38;;;;;;;4.97;2.58;;;14.00;99.90;;;13.66;100.00;101533.78;4168243;28;20018;-76
2021/09/11 03:05:39;;;;;;;3.28;2.30;;;14.00;99.90;;;13.65;100.00;101543.56;4184166;28;20060;-76
2021/09/11 03:07:40;;;;;;;3.63;2.67;;;13.90;99.90;;;13.60;100.00;101529.13;4165654;28;20022;-76
2021/09/11 03:09:41;;;;;;;4.95;2.58;;;13.90;99.90;;;13.41;100.00;101518.75;4168125;28;20029;-75
2021/09/11 03:11:42;;;;;;;4.90;2.40;;;13.90;99.90;;;13.39;100.00;101532.13;4184468;28;20167;-75
2021/09/11 03:13:44;;;;;;;3.15;2.40;;;13.80;99.90;;;13.37;100.00;101526.16;4218075;28;20083;-75
2021/09/11 03:15:45;;;;;;;5.10;2.90;;;13.80;99.90;;;13.24;100.00;101509.81;4168276;28;20530;-76
2021/09/11 03:17:46;;;;;;;5.88;3.05;;;13.80;99.90;;;13.36;100.00;101524.50;4174896;28;20033;-75
2021/09/11 03:19:47;;;;;;;5.28;2.50;;;13.80;99.90;;;13.39;100.00;101521.53;4184443;28;20048;-75
2021/09/11 03:21:48;;;;;;;3.53;2.30;;;13.80;99.90;;;13.46;100.00;101538.50;4184571;28;20040;-75
2021/09/11 03:23:49;;;;;;;3.08;2.47;;;13.80;99.90;;;13.62;100.00;101557.13;4201151;28;20028;-75
2021/09/11 03:25:50;;;;;;;4.40;2.63;;;13.80;99.90;;;13.41;100.00;101545.25;4167894;28;20071;-75
2021/09/11 03:27:51;;;;;;;5.47;3.63;;;13.80;99.90;;;13.27;100.00;101528.91;4184518;28;20021;-75
2021/09/11 03:29:52;;;;;;;3.38;2.60;;;13.70;99.90;;;13.17;100.00;101506.16;4185650;28;20037;-75
2021/09/11 03:31:53;;;;;;;4.88;2.83;;;13.70;99.90;;;13.28;100.00;101532.38;4167947;28;20045;-75
2021/09/11 03:33:54;;;;;;;4.38;2.30;;;13.70;99.90;;;13.36;100.00;101547.50;4211827;28;20034;-75
2021/09/11 03:35:55;;;;;;;4.78;2.40;;;13.70;99.90;;;13.40;100.00;101543.56;4176736;28;20021;-75
2021/09/11 03:37:56;;;;;;;5.50;2.40;;;13.70;99.90;;;13.55;100.00;101563.22;4184389;28;20047;-75
2021/09/11 03:39:57;;;;;;;3.40;2.50;;;13.80;99.90;;;13.39;100.00;101545.38;4183765;28;20025;-75
2021/09/11 03:41:58;;;;;;;2.88;2.22;;;13.80;99.90;;;13.24;100.00;101539.81;4185574;28;20115;-75
2021/09/11 03:43:59;;;;;;;4.03;2.65;;;13.80;99.90;;;13.35;100.00;101551.97;4185511;28;20075;-75
2021/09/11 03:46:00;;;;;;;3.60;2.40;;;13.70;99.90;;;13.21;100.00;101529.53;4167406;28;20049;-75
2021/09/11 03:48:01;;;;;;;3.33;2.50;;;13.70;99.90;;;13.18;100.00;101529.81;4199553;28;20146;-75
2021/09/11 03:50:04;;;;;;;3.38;2.35;;;13.70;99.90;;;13.14;100.00;101523.16;4183743;28;20060;-75
2021/09/11 03:52:06;;;;;;;3.92;2.38;;;13.70;99.90;;;13.44;100.00;101555.53;4167674;28;20037;-75
2021/09/11 03:54:07;;;;;;;4.40;3.13;;;13.70;99.90;;;13.39;100.00;101544.53;4184469;28;20483;-75
2021/09/11 03:56:07;;;;;;;4.65;2.20;;;13.80;99.90;;;13.37;100.00;101542.06;4167407;28;20030;-75
2021/09/11 03:58:08;;;;;;;2.90;2.10;;;13.80;99.90;;;13.48;100.00;101544.47;4184227;28;20098;-75
2021/09/11 04:00:10;;;;;;;4.90;2.00;;;13.80;99.90;;;13.48;100.00;101533.84;4176411;28;20071;-75
2021/09/11 04:02:11;;;;;;;2.75;2.35;;;13.80;99.90;;;13.70;100.00;101548.41;4178780;28;20496;-75
2021/09/11 04:04:12;;;;;;;3.75;2.20;;;13.80;99.90;;;13.74;100.00;101552.41;4183967;28;20028;-75
2021/09/11 04:06:13;;;;;;;5.47;2.40;;;13.90;99.90;;;13.70;100.00;101538.66;4183553;28;20033;-75
2021/09/11 04:08:15;;;;;;;3.63;2.22;;;13.90;99.90;;;13.73;100.00;101546.28;4184101;28;20024;-75
2021/09/11 04:10:16;;;;;;;5.13;2.00;;;13.90;99.90;;;13.78;100.00;101564.38;4167594;28;20052;-75
2021/09/11 04:12:16;;;;;;;5.15;2.40;;;14.00;99.90;;;13.68;100.00;101564.47;4200216;28;20617;-75
2021/09/11 04:14:17;;;;;;;5.55;2.10;;;13.90;99.90;;;13.50;100.00;101534.53;4155897;28;20064;-75
2021/09/11 04:16:18;;;;;;;5.30;2.45;;;13.90;99.90;;;13.61;100.00;101546.69;4183691;28;20032;-75
2021/09/11 04:18:19;;;;;;;3.00;2.47;;;13.90;99.90;;;13.42;100.00;101520.38;4183981;28;20059;-75
2021/09/11 04:20:21;;;;;;;2.72;2.42;;;14.00;99.90;;;13.50;100.00;101539.00;4183426;28;20059;-75
2021/09/11 04:22:21;;;;;;;3.53;2.63;;;13.90;99.90;;;13.54;100.00;101554.44;4183921;28;20548;-75
2021/09/11 04:24:22;;;;;;;4.40;3.03;;;13.90;99.90;;;13.28;100.00;101521.78;4167501;28;20032;-75
2021/09/11 04:26:23;;;;;;;5.32;3.28;;;13.90;99.90;;;13.36;100.00;101536.91;4185022;28;20033;-75
2021/09/11 04:28:24;;;;;;;4.28;2.90;;;13.80;99.90;;;13.34;100.00;101541.53;4167034;28;20445;-75
2021/09/11 04:30:26;;;;;;;4.53;2.75;;;13.80;99.90;;;13.32;100.00;101541.69;4167401;28;20107;-75
2021/09/11 04:32:27;;;;;;;4.28;2.90;;;13.80;99.90;;;13.52;100.00;101558.25;4167160;28;20026;-75
2021/09/11 04:34:28;;;;;;;5.13;3.10;;;13.80;99.90;;;13.81;100.00;101561.41;4166922;28;20036;-75
2021/09/11 04:36:29;;;;;;;4.38;2.75;;;13.80;99.90;;;13.49;100.00;101537.34;4183717;28;20030;-75
2021/09/11 04:38:30;;;;;;;3.45;2.80;;;13.80;99.90;;;13.44;100.00;101535.13;4183715;28;20033;-75
2021/09/11 04:40:31;;;;;;;4.75;2.97;;;13.80;99.90;;;13.39;100.00;101548.03;4167061;28;20116;-75
2021/09/11 04:42:31;;;;;;;7.50;3.78;;;13.80;99.90;;;13.42;100.00;101544.25;4183819;28;20037;-75
2021/09/11 04:44:32;;;;;;;5.20;3.20;;;13.70;99.90;;;13.38;100.00;101558.81;4183411;28;20036;-75
2021/09/11 04:46:33;;;;;;;6.05;2.97;;;13.70;99.90;;;13.38;100.00;101574.72;4183477;28;20040;-75
2021/09/11 04:48:34;;;;;;;4.03;3.15;;;13.60;99.90;;;13.21;100.00;101566.59;4183657;28;20029;-75
2021/09/11 04:50:35;;;;;;;5.55;2.58;;;13.60;99.90;;;13.13;100.00;101569.19;4167351;28;20179;-75
2021/09/11 04:52:36;;;;;;;4.53;2.80;;;13.50;99.90;;;12.95;100.00;101535.72;4167797;28;20076;-75
2021/09/11 04:54:37;;;;;;;3.08;2.50;;;13.50;99.90;;;13.02;100.00;101550.03;4203504;28;20036;-75
2021/09/11 04:56:38;;;;;;;6.00;2.92;;;13.50;99.90;;;13.05;100.00;101550.53;4170303;28;20061;-75
2021/09/11 04:58:39;;;;;;;4.45;3.03;;;13.50;99.90;;;13.24;100.00;101549.56;4187165;28;20043;-75
2021/09/11 05:00:41;;;;;;;4.07;2.47;;;13.50;99.90;;;13.09;100.00;101514.84;4167173;28;20041;-75
2021/09/11 05:02:42;;;;;;;4.70;2.67;;;13.60;99.90;;;13.13;100.00;101520.69;4174917;28;20052;-75
2021/09/11 05:04:43;;;;;;;5.22;2.72;;;13.60;99.90;;;13.36;100.00;101550.16;4186783;28;20024;-75
2021/09/11 05:06:44;;;;;;;3.92;2.80;;;13.60;99.90;;;13.35;100.00;101551.97;4210367;28;20036;-75
2021/09/11 05:08:45;;;;;;;4.57;2.63;;;13.70;99.90;;;13.45;100.00;101555.38;4183116;28;20077;-75
2021/09/11 05:10:46;;;;;;;3.28;2.25;;;13.80;99.90;;;13.55;100.00;101564.06;4156705;28;20026;-75
2021/09/11 05:12:47;;;;;;;5.70;2.75;;;13.80;99.90;;;13.56;100.00;101573.66;4170117;28;20236;-75
2021/09/11 05:14:48;;;;;;;4.65;2.63;;;13.80;99.90;;;13.55;100.00;101576.47;4186655;28;20033;-75
2021/09/11 05:16:49;;;;;;;4.65;2.60;;;13.80;99.90;;;13.47;100.00;101579.09;4169971;28;20036;-75
2021/09/11 05:18:49;;;;;;;5.72;2.50;;;13.80;99.90;;;13.40;100.00;101576.22;4186369;28;20131;-75
2021/09/11 05:20:50;;;;;;;4.00;2.65;;;13.80;99.90;;;13.34;100.00;101558.28;4186387;28;20508;-75
2021/09/11 05:22:51;;;;;;;4.75;3.17;;;13.80;99.90;;;13.41;100.00;101574.41;4187956;28;20029;-75
2021/09/11 05:24:52;;;;;;;4.63;2.33;;;13.70;99.90;;;13.47;100.00;101576.44;4186426;28;20025;-75
2021/09/11 05:26:54;;;;;;;3.83;2.40;;;13.70;99.90;;;13.59;100.00;101593.75;4186361;28;20033;-75
2021/09/11 05:28:55;;;;;;;3.90;2.63;;;13.80;99.90;;;13.45;100.00;101587.16;4186700;28;20138;-75
2021/09/11 05:30:56;;;;;;;5.03;2.42;;;13.70;99.90;;;13.42;100.00;101576.88;4169775;28;20033;-75
2021/09/11 05:32:57;;;;;;;7.95;2.90;;;13.70;99.90;;;13.39;100.00;101577.19;4186347;28;20130;-75
2021/09/11 05:34:58;;;;;;;4.30;2.80;;;13.80;99.90;;;13.49;100.00;101579.75;4169467;28;20033;-75
2021/09/11 05:36:59;;;;;;;3.85;2.42;;;13.80;99.90;;;13.59;100.00;101586.59;4202792;28;20075;-75
2021/09/11 05:39:00;;;;;;;5.68;2.78;;;13.80;99.90;;;13.63;100.00;101592.44;4169745;28;20025;-75
2021/09/11 05:41:01;;;;;;;5.38;2.58;;;13.80;99.90;;;13.56;100.00;101588.75;4202734;28;20025;-75
2021/09/11 05:43:02;;;;;;;5.20;2.35;;;13.80;99.90;;;13.64;100.00;101588.81;4185188;28;20500;-75
2021/09/11 05:45:05;;;;;;;5.90;2.03;;;13.80;99.90;;;13.59;100.00;101578.66;4169466;28;20041;-75
2021/09/11 05:47:06;;;;;;;7.00;2.40;;;13.80;99.90;;;13.67;99.20;101588.50;4187375;28;20151;-75
2021/09/11 05:49:07;;;;;;;6.15;2.22;;;13.80;99.90;;;13.52;99.22;101574.13;4202664;28;20020;-75
2021/09/11 05:51:08;;;;;;;5.22;2.20;;;13.80;99.90;;;13.46;99.54;101575.59;4169162;28;20033;-75
2021/09/11 05:53:09;;;;;;;5.07;2.05;;;13.80;99.90;;;13.24;99.77;101547.75;4186423;28;20067;-75
2021/09/11 05:55:11;;;;;;;3.60;2.33;;;13.80;99.90;;;13.35;98.30;101545.88;4169615;28;20068;-75
2021/09/11 05:57:11;;;;;;;6.25;2.92;;;13.70;99.90;;;13.23;98.73;101543.44;4202702;28;20029;-75
2021/09/11 05:59:12;;;;;;;5.43;2.78;;;13.70;99.90;;;13.30;99.33;101565.69;4202298;28;20052;-75
2021/09/11 06:01:13;;;;;;;3.88;2.63;;;13.70;99.90;;;13.37;100.00;101565.06;4169669;28;20048;-75
2021/09/11 06:03:14;;;;;;;4.28;2.58;;;13.70;99.90;;;13.38;99.94;101577.34;4185237;28;20032;-75
2021/09/11 06:05:15;;;;;;;2.63;2.25;;;13.70;99.90;;;13.38;99.76;101566.75;4185659;28;20033;-75
2021/09/11 06:07:16;;;;;;;6.10;2.63;;;13.60;99.90;;;13.52;99.01;101580.28;4185729;28;20092;-75
2021/09/11 06:09:17;;;;;;;4.38;2.90;;;13.70;99.90;;;13.32;99.12;101557.56;4183321;28;20033;-75
2021/09/11 06:11:18;;;;;;;3.67;2.53;;;13.70;99.90;;;13.33;99.35;101564.56;4202573;28;20033;-75
2021/09/11 06:13:19;;;;;;;3.85;2.20;;;13.70;99.90;;;13.47;98.64;101577.25;4179429;28;20189;-75
2021/09/11 06:15:21;;;;;;;5.13;2.45;;;13.70;99.90;;;13.44;98.13;101584.69;4182430;28;20021;-75
2021/09/11 06:17:22;;;;;;;6.70;1.90;;;13.60;99.90;;;13.39;97.25;101573.69;4202114;28;20147;-75
2021/09/11 06:19:23;;;;;;;5.75;2.42;;;13.70;99.90;;;13.42;97.07;101586.66;4185077;28;20037;-75
2021/09/11 06:21:24;;;;;;;3.67;2.58;;;13.60;99.90;;;13.25;98.02;101588.34;4185465;28;20087;-74
2021/09/11 06:23:27;;;;;;;4.10;2.63;;;13.60;99.90;;;13.21;99.21;101582.50;4168726;28;20507;-74
2021/09/11 06:25:28;;;;;;;4.65;2.40;;;13.60;99.90;;;13.32;99.76;101599.16;4173128;28;20036;-74
2021/09/11 06:27:29;;;;;;;5.57;2.15;;;13.60;99.90;;;13.29;100.00;101590.53;4201885;28;20495;-74
2021/09/11 06:29:30;;;;;;;5.07;2.28;;;13.60;99.90;;;13.36;100.00;101604.00;4168807;28;20037;-74
2021/09/11 06:31:31;;;;;;;5.82;2.40;;;13.60;99.90;;;13.34;99.30;101591.88;4186353;28;20409;-74
2021/09/11 06:33:32;;;;;;;2.45;1.90;;;13.60;99.90;;;13.38;99.37;101607.31;4185355;28;20040;-75
2021/09/11 06:35:33;;;;;;;4.35;2.50;;;13.60;99.90;;;13.41;99.89;101607.00;4186204;28;20025;-76
2021/09/11 06:37:34;;;;;;;3.22;2.30;;;13.60;99.90;;;13.28;100.00;101604.78;4185195;28;20032;-76
2021/09/11 06:39:35;;;;;;;2.95;2.60;;;13.60;99.90;;;13.14;100.00;101575.34;4204699;28;20024;-76
2021/09/11 06:41:36;;;;;;;3.17;1.90;;;13.60;99.90;;;13.03;100.00;101567.56;4172436;28;20090;-77
2021/09/11 06:43:37;;;;;;;3.72;2.15;;;13.60;99.90;;;13.00;100.00;101589.06;4201912;28;20473;-76
2021/09/11 06:45:38;;;;;;;3.10;2.05;;;13.60;99.90;;;12.95;100.00;101580.75;4186027;28;20060;-76
2021/09/11 06:47:39;;;;;;;3.88;1.90;;;13.60;99.90;;;13.18;100.00;101596.06;4185206;28;20087;-76
2021/09/11 06:49:40;;;;;;;3.28;2.63;;;13.60;99.90;;;13.02;100.00;101572.03;4201576;28;20067;-76
2021/09/11 06:51:41;;;;;;;2.60;1.92;;;13.60;99.90;;;13.23;100.00;101604.38;4158605;28;20033;-77
2021/09/11 06:53:42;;;;;;;2.92;2.30;;;13.70;99.90;;;13.20;100.00;101596.72;4184791;28;20033;-77
2021/09/11 06:55:43;;;;;;;4.13;2.17;;;13.70;99.90;;;13.22;100.00;101586.84;4181286;28;20029;-76
2021/09/11 06:57:44;;;;;;;3.65;2.13;;;13.70;99.90;;;13.29;100.00;101584.38;4185891;28;20446;-76
2021/09/11 06:59:45;;;;;;;2.55;1.90;;;13.80;99.90;;;13.48;100.00;101607.22;4186019;28;20438;-76
2021/09/11 07:01:46;;;;;;;3.50;2.03;;;13.80;99.90;;;13.32;100.00;101579.63;4184813;28;20388;-76
2021/09/11 07:03:47;;;;;;;3.45;2.60;;;13.90;99.90;;;13.47;100.00;101602.94;4185937;28;20479;-76
2021/09/11 07:05:48;;;;;;;2.88;2.03;;;13.90;99.90;;;13.50;100.00;101613.22;4184546;28;20032;-76
2021/09/11 07:07:49;;;;;;;3.47;2.30;;;14.00;99.90;;;13.56;100.00;101634.63;4218039;28;20114;-77
2021/09/11 07:09:50;;;;;;;4.53;2.63;;;14.00;99.90;;;13.63;100.00;101633.03;4184666;28;20052;-76
2021/09/11 07:11:51;;;;;;;5.13;2.42;;;14.00;99.90;;;13.55;100.00;101616.25;4168046;28;20037;-76
2021/09/11 07:13:52;;;;;;;3.15;2.53;;;14.10;99.90;;;13.57;100.00;101620.41;4182891;28;20033;-76
2021/09/11 07:15:53;;;;;;;4.45;2.25;;;14.10;99.90;;;13.63;100.00;101617.13;4155344;28;20523;-76
2021/09/11 07:17:55;;;;;;;2.80;2.10;;;14.10;99.90;;;13.67;100.00;101621.16;4184661;28;20025;-77
2021/09/11 07:19:56;;;;;;;3.90;2.33;;;14.20;99.90;;;13.66;100.00;101618.63;4184354;28;20052;-76
2021/09/11 07:21:57;;;;;;;6.82;1.95;;;14.20;99.90;;;13.84;100.00;101643.31;4167876;28;20029;-76
2021/09/11 07:23:58;;;;;;;3.10;1.95;;;14.30;99.90;;;14.06;100.00;101653.41;4167765;28;20061;-76
2021/09/11 07:25:59;;;;;;;3.05;2.13;;;14.30;99.90;;;14.01;100.00;101633.66;4184414;28;20427;-76
2021/09/11 07:28:00;;;;;;;3.50;2.08;;;14.40;99.90;;;14.07;100.00;101644.44;4184632;28;20059;-76
2021/09/11 07:30:01;;;;;;;3.20;2.08;;;14.40;99.90;;;13.94;100.00;101608.72;4167779;28;20068;-76
2021/09/11 07:32:03;;;;;;;3.28;2.28;;;14.50;99.90;;;14.04;100.00;101628.84;4183840;28;20574;-77
2021/09/11 07:34:05;;;;;;;3.33;2.28;;;14.60;99.90;;;14.19;100.00;101637.03;4167854;28;20116;-76
2021/09/11 07:36:06;;;;;;;2.67;2.20;;;14.70;99.90;;;14.39;100.00;101663.22;4167588;28;20026;-76
2021/09/11 07:38:08;;;;;;;2.45;2.00;;;14.80;99.90;;;14.24;100.00;101640.09;4184199;28;20052;-76
2021/09/11 07:40:10;;;;;;;3.30;2.13;;;14.80;99.90;;;14.44;100.00;101661.94;4167699;28;20032;-76
2021/09/11 07:42:11;;;;;;;3.28;2.30;;;14.90;99.90;;;14.40;100.00;101646.31;4167554;28;20026;-76
2021/09/11 07:44:12;;;;;;;2.63;2.20;;;14.90;99.90;;;14.59;100.00;101655.88;4183662;28;20055;-76
2021/09/11 07:46:13;;;;;;;2.60;1.75;;;15.00;99.90;;;14.57;100.00;101659.69;4184142;28;20028;-77
2021/09/11 07:48:14;;;;;;;5.05;2.60;;;15.10;99.90;;;14.71;100.00;101661.72;4184127;28;20036;-77
2021/09/11 07:50:15;;;;;;;7.57;2.40;;;15.10;99.90;;;14.71;100.00;101649.28;4167395;28;20044;-77
2021/09/11 07:52:17;;;;;;;3.20;2.25;;;15.20;99.90;;;14.75;100.00;101650.63;4161477;28;20037;-77
2021/09/11 07:54:18;;;;;;;4.43;2.20;;;15.30;99.90;;;14.73;100.00;101636.66;4185093;28;20083;-77
2021/09/11 07:56:19;;;;;;;2.97;2.10;;;15.40;99.90;;;14.85;100.00;101646.00;4183967;28;20037;-76
2021/09/11 07:58:21;;;;;;;5.57;2.20;;;15.40;99.90;;;15.03;100.00;101661.81;4184068;28;20025;-77
2021/09/11 08:00:22;;;;;;;4.43;2.45;;;15.50;99.90;;;15.16;100.00;101666.66;4183811;28;20060;-77
2021/09/11 08:02:23;;;;;;;6.05;2.50;;;15.60;99.90;;;15.25;100.00;101665.69;4203196;28;20035;-77
2021/09/11 08:04:24;;;;;;;3.85;2.30;;;15.70;99.90;;;15.62;100.00;101670.59;4200401;28;20024;-76
2021/09/11 08:06:25;;;;;;;3.63;1.80;;;15.90;99.90;;;15.55;100.00;101670.41;4157927;28;20534;-76
2021/09/11 08:08:26;;;;;;;3.78;2.00;;;16.00;99.90;;;15.53;100.00;101660.94;4167360;28;20033;-76
2021/09/11 08:10:27;;;;;;;3.97;1.80;;;16.00;99.90;;;15.71;100.00;101678.38;4167128;28;20128;-76
2021/09/11 08:12:28;;;;;;;4.13;2.25;;;16.10;99.90;;;15.76;100.00;101667.25;4167184;28;20120;-76
2021/09/11 08:14:29;;;;;;;3.97;2.08;;;16.20;99.90;;;15.67;100.00;101652.28;4217124;28;20028;-76
2021/09/11 08:16:30;;;;;;;3.88;2.25;;;16.30;99.90;;;16.03;100.00;101682.88;4183757;28;20044;-76
2021/09/11 08:18:31;;;;;;;2.47;2.08;;;16.40;99.90;;;16.01;100.00;101687.50;4183856;28;20033;-77
2021/09/11 08:20:32;;;;;;;3.28;2.33;;;16.40;99.90;;;16.17;100.00;101660.03;4166870;28;20055;-76